sensor_id;sensor_type;location;lat;lon;timestamp;P1;durP1;ratioP1;P2;durP2;ratioP2
71800;SDS011;59647;55.838;37.292;2023-05-07T00:00:42;6.22;;;2.88;;
71800;SDS011;59647;55.838;37.292;2023-05-07T00:03:08;5.85;;;2.83;;
71800;SDS011;59647;55.838;37.292;2023-05-07T00:05:34;5.28;;;2.63;;
71800;SDS011;59647;55.838;37.292;2023-05-07T00:07:59;4.97;;;2.70;;
71800;SDS011;59647;55.838;37.292;2023-05-07T00:10:25;7.80;;;2.50;;
71800;SDS011;59647;55.838;37.292;2023-05-07T00:12:51;6.18;;;2.50;;
71800;SDS011;59647;55.838;37.292;2023-05-07T00:15:17;6.70;;;2.70;;
71800;SDS011;59647;55.838;37.292;2023-05-07T00:17:43;5.53;;;2.67;;
71800;SDS011;59647;55.838;37.292;2023-05-07T00:20:09;7.82;;;2.72;;
71800;SDS011;59647;55.838;37.292;2023-05-07T00:22:36;6.47;;;2.92;;
71800;SDS011;59647;55.838;37.292;2023-05-07T00:25:03;6.53;;;2.60;;
71800;SDS011;59647;55.838;37.292;2023-05-07T00:27:32;6.88;;;2.75;;
71800;SDS011;59647;55.838;37.292;2023-05-07T00:29:58;8.20;;;2.60;;
71800;SDS011;59647;55.838;37.292;2023-05-07T00:32:24;6.35;;;2.33;;
71800;SDS011;59647;55.838;37.292;2023-05-07T00:34:49;10.13;;;2.78;;
71800;SDS011;59647;55.838;37.292;2023-05-07T00:37:16;4.85;;;2.08;;
71800;SDS011;59647;55.838;37.292;2023-05-07T00:39:42;7.45;;;2.83;;
71800;SDS011;59647;55.838;37.292;2023-05-07T00:42:08;5.00;;;2.88;;
71800;SDS011;59647;55.838;37.292;2023-05-07T00:44:34;7.10;;;2.78;;
71800;SDS011;59647;55.838;37.292;2023-05-07T00:47:01;5.32;;;2.58;;
71800;SDS011;59647;55.838;37.292;2023-05-07T00:49:38;4.78;;;2.08;;
71800;SDS011;59647;55.838;37.292;2023-05-07T00:52:06;4.65;;;2.50;;
71800;SDS011;59647;55.838;37.292;2023-05-07T00:54:34;5.13;;;2.33;;
71800;SDS011;59647;55.838;37.292;2023-05-07T00:57:02;3.92;;;2.28;;
71800;SDS011;59647;55.838;37.292;2023-05-07T00:59:30;9.63;;;3.17;;
71800;SDS011;59647;55.838;37.292;2023-05-07T01:01:57;5.00;;;2.75;;
71800;SDS011;59647;55.838;37.292;2023-05-07T01:04:23;7.70;;;3.05;;
71800;SDS011;59647;55.838;37.292;2023-05-07T01:06:49;4.80;;;2.40;;
71800;SDS011;59647;55.838;37.292;2023-05-07T01:09:16;4.80;;;2.75;;
71800;SDS011;59647;55.838;37.292;2023-05-07T01:11:42;4.32;;;2.33;;
71800;SDS011;59647;55.838;37.292;2023-05-07T01:14:09;8.93;;;2.55;;
71800;SDS011;59647;55.838;37.292;2023-05-07T01:16:36;7.45;;;3.00;;
71800;SDS011;59647;55.838;37.292;2023-05-07T01:19:02;5.93;;;2.63;;
71800;SDS011;59647;55.838;37.292;2023-05-07T01:21:29;3.72;;;2.30;;
71800;SDS011;59647;55.838;37.292;2023-05-07T01:24:01;4.85;;;2.33;;
71800;SDS011;59647;55.838;37.292;2023-05-07T01:26:29;5.75;;;2.20;;
71800;SDS011;59647;55.838;37.292;2023-05-07T01:28:56;7.07;;;2.75;;
71800;SDS011;59647;55.838;37.292;2023-05-07T01:31:21;6.07;;;2.92;;
71800;SDS011;59647;55.838;37.292;2023-05-07T01:33:49;5.22;;;2.40;;
71800;SDS011;59647;55.838;37.292;2023-05-07T01:36:17;5.00;;;2.00;;
71800;SDS011;59647;55.838;37.292;2023-05-07T01:38:46;4.60;;;2.10;;
71800;SDS011;59647;55.838;37.292;2023-05-07T01:41:12;6.35;;;2.47;;
71800;SDS011;59647;55.838;37.292;2023-05-07T01:43:40;3.65;;;2.13;;
71800;SDS011;59647;55.838;37.292;2023-05-07T01:46:06;4.47;;;2.17;;
71800;SDS011;59647;55.838;37.292;2023-05-07T01:48:35;4.97;;;2.33;;
71800;SDS011;59647;55.838;37.292;2023-05-07T01:51:02;4.15;;;2.33;;
71800;SDS011;59647;55.838;37.292;2023-05-07T01:53:28;2.90;;;1.65;;
71800;SDS011;59647;55.838;37.292;2023-05-07T01:55:54;6.22;;;2.60;;
71800;SDS011;59647;55.838;37.292;2023-05-07T01:58:21;4.90;;;2.45;;
71800;SDS011;59647;55.838;37.292;2023-05-07T02:00:47;4.88;;;2.65;;
71800;SDS011;59647;55.838;37.292;2023-05-07T02:03:13;6.18;;;2.20;;
71800;SDS011;59647;55.838;37.292;2023-05-07T02:05:51;6.05;;;2.53;;
71800;SDS011;59647;55.838;37.292;2023-05-07T02:08:34;4.63;;;2.80;;
71800;SDS011;59647;55.838;37.292;2023-05-07T02:11:01;7.38;;;2.10;;
71800;SDS011;59647;55.838;37.292;2023-05-07T02:13:29;6.20;;;2.10;;
71800;SDS011;59647;55.838;37.292;2023-05-07T02:15:57;6.28;;;2.65;;
71800;SDS011;59647;55.838;37.292;2023-05-07T02:18:25;5.60;;;2.45;;
71800;SDS011;59647;55.838;37.292;2023-05-07T02:20:51;6.18;;;2.72;;
71800;SDS011;59647;55.838;37.292;2023-05-07T02:23:17;5.97;;;2.60;;
71800;SDS011;59647;55.838;37.292;2023-05-07T02:25:43;7.78;;;2.53;;
71800;SDS011;59647;55.838;37.292;2023-05-07T02:28:09;5.28;;;2.55;;
71800;SDS011;59647;55.838;37.292;2023-05-07T02:30:58;5.80;;;2.80;;
71800;SDS011;59647;55.838;37.292;2023-05-07T02:33:26;5.53;;;2.80;;
71800;SDS011;59647;55.838;37.292;2023-05-07T02:35:52;4.72;;;2.38;;
71800;SDS011;59647;55.838;37.292;2023-05-07T02:38:18;4.97;;;2.45;;
71800;SDS011;59647;55.838;37.292;2023-05-07T02:40:44;7.22;;;2.55;;
71800;SDS011;59647;55.838;37.292;2023-05-07T02:43:10;4.22;;;2.30;;
71800;SDS011;59647;55.838;37.292;2023-05-07T02:45:37;5.78;;;2.75;;
71800;SDS011;59647;55.838;37.292;2023-05-07T02:48:05;4.15;;;1.95;;
71800;SDS011;59647;55.838;37.292;2023-05-07T02:50:32;5.00;;;2.53;;
71800;SDS011;59647;55.838;37.292;2023-05-07T02:52:58;7.78;;;2.88;;
71800;SDS011;59647;55.838;37.292;2023-05-07T02:55:25;5.15;;;2.13;;
71800;SDS011;59647;55.838;37.292;2023-05-07T02:57:50;4.40;;;2.20;;
71800;SDS011;59647;55.838;37.292;2023-05-07T03:00:17;4.45;;;2.38;;
71800;SDS011;59647;55.838;37.292;2023-05-07T03:03:10;4.70;;;2.53;;
71800;SDS011;59647;55.838;37.292;2023-05-07T03:05:36;5.45;;;2.58;;
71800;SDS011;59647;55.838;37.292;2023-05-07T03:08:02;5.20;;;2.45;;
71800;SDS011;59647;55.838;37.292;2023-05-07T03:10:29;4.93;;;1.90;;
71800;SDS011;59647;55.838;37.292;2023-05-07T03:12:55;4.22;;;2.22;;
71800;SDS011;59647;55.838;37.292;2023-05-07T03:15:21;4.63;;;2.30;;
71800;SDS011;59647;55.838;37.292;2023-05-07T03:17:47;3.80;;;2.53;;
71800;SDS011;59647;55.838;37.292;2023-05-07T03:20:13;3.72;;;2.15;;
71800;SDS011;59647;55.838;37.292;2023-05-07T03:22:40;7.63;;;3.70;;
71800;SDS011;59647;55.838;37.292;2023-05-07T03:25:06;4.00;;;2.08;;
71800;SDS011;59647;55.838;37.292;2023-05-07T03:27:36;5.30;;;2.67;;
71800;SDS011;59647;55.838;37.292;2023-05-07T03:30:03;4.70;;;1.98;;
71800;SDS011;59647;55.838;37.292;2023-05-07T03:32:31;3.92;;;2.10;;
71800;SDS011;59647;55.838;37.292;2023-05-07T03:34:57;4.57;;;2.38;;
71800;SDS011;59647;55.838;37.292;2023-05-07T03:37:23;3.42;;;1.73;;
71800;SDS011;59647;55.838;37.292;2023-05-07T03:39:50;3.50;;;1.67;;
71800;SDS011;59647;55.838;37.292;2023-05-07T03:42:16;4.22;;;2.28;;
71800;SDS011;59647;55.838;37.292;2023-05-07T03:44:43;4.85;;;2.53;;
71800;SDS011;59647;55.838;37.292;2023-05-07T03:47:09;4.20;;;1.98;;
71800;SDS011;59647;55.838;37.292;2023-05-07T03:49:36;5.20;;;2.05;;
71800;SDS011;59647;55.838;37.292;2023-05-07T03:52:02;3.38;;;1.92;;
71800;SDS011;59647;55.838;37.292;2023-05-07T03:54:30;2.97;;;1.83;;
71800;SDS011;59647;55.838;37.292;2023-05-07T03:56:57;4.07;;;1.98;;
71800;SDS011;59647;55.838;37.292;2023-05-07T03:59:22;5.95;;;2.53;;
71800;SDS011;59647;55.838;37.292;2023-05-07T04:01:50;3.70;;;1.75;;
71800;SDS011;59647;55.838;37.292;2023-05-07T04:04:19;7.80;;;2.33;;
71800;SDS011;59647;55.838;37.292;2023-05-07T04:06:45;4.85;;;2.20;;
71800;SDS011;59647;55.838;37.292;2023-05-07T04:09:11;4.38;;;2.00;;
71800;SDS011;59647;55.838;37.292;2023-05-07T04:11:38;3.65;;;1.85;;
71800;SDS011;59647;55.838;37.292;2023-05-07T04:14:07;3.75;;;1.70;;
71800;SDS011;59647;55.838;37.292;2023-05-07T04:16:34;4.20;;;2.25;;
71800;SDS011;59647;55.838;37.292;2023-05-07T04:19:01;4.68;;;2.20;;
71800;SDS011;59647;55.838;37.292;2023-05-07T04:21:28;6.25;;;1.83;;
71800;SDS011;59647;55.838;37.292;2023-05-07T04:23:55;9.10;;;2.90;;
71800;SDS011;59647;55.838;37.292;2023-05-07T04:26:21;1.83;;;1.17;;
71800;SDS011;59647;55.838;37.292;2023-05-07T04:28:48;4.93;;;2.90;;
71800;SDS011;59647;55.838;37.292;2023-05-07T04:31:14;6.03;;;1.55;;
71800;SDS011;59647;55.838;37.292;2023-05-07T04:33:41;4.43;;;2.00;;
71800;SDS011;59647;55.838;37.292;2023-05-07T04:36:10;2.95;;;1.52;;
71800;SDS011;59647;55.838;37.292;2023-05-07T04:38:43;3.45;;;1.70;;
71800;SDS011;59647;55.838;37.292;2023-05-07T04:41:12;5.05;;;1.88;;
71800;SDS011;59647;55.838;37.292;2023-05-07T04:43:40;5.65;;;1.85;;
71800;SDS011;59647;55.838;37.292;2023-05-07T04:46:07;3.35;;;2.10;;
71800;SDS011;59647;55.838;37.292;2023-05-07T04:48:34;6.85;;;1.88;;
71800;SDS011;59647;55.838;37.292;2023-05-07T04:51:01;3.97;;;1.58;;
71800;SDS011;59647;55.838;37.292;2023-05-07T04:53:27;2.17;;;1.35;;
71800;SDS011;59647;55.838;37.292;2023-05-07T04:55:56;11.10;;;2.22;;
71800;SDS011;59647;55.838;37.292;2023-05-07T04:58:25;6.03;;;2.08;;
71800;SDS011;59647;55.838;37.292;2023-05-07T05:00:52;3.83;;;1.63;;
71800;SDS011;59647;55.838;37.292;2023-05-07T05:03:18;3.70;;;1.95;;
71800;SDS011;59647;55.838;37.292;2023-05-07T05:05:44;2.83;;;1.80;;
71800;SDS011;59647;55.838;37.292;2023-05-07T05:08:11;2.50;;;1.30;;
71800;SDS011;59647;55.838;37.292;2023-05-07T05:10:40;15.80;;;3.20;;
71800;SDS011;59647;55.838;37.292;2023-05-07T05:13:06;2.75;;;1.48;;
71800;SDS011;59647;55.838;37.292;2023-05-07T05:15:34;3.72;;;1.80;;
71800;SDS011;59647;55.838;37.292;2023-05-07T05:18:01;8.05;;;4.20;;
71800;SDS011;59647;55.838;37.292;2023-05-07T05:20:27;7.97;;;2.00;;
71800;SDS011;59647;55.838;37.292;2023-05-07T05:22:53;4.32;;;2.00;;
71800;SDS011;59647;55.838;37.292;2023-05-07T05:25:19;3.60;;;1.48;;
71800;SDS011;59647;55.838;37.292;2023-05-07T05:27:46;2.50;;;1.40;;
71800;SDS011;59647;55.838;37.292;2023-05-07T05:30:12;3.90;;;1.25;;
71800;SDS011;59647;55.838;37.292;2023-05-07T05:32:38;14.73;;;2.13;;
71800;SDS011;59647;55.838;37.292;2023-05-07T05:35:05;2.25;;;1.30;;
71800;SDS011;59647;55.838;37.292;2023-05-07T05:37:31;3.00;;;1.30;;
71800;SDS011;59647;55.838;37.292;2023-05-07T05:39:59;3.83;;;1.90;;
71800;SDS011;59647;55.838;37.292;2023-05-07T05:42:31;2.10;;;1.20;;
71800;SDS011;59647;55.838;37.292;2023-05-07T05:44:57;6.88;;;1.88;;
71800;SDS011;59647;55.838;37.292;2023-05-07T05:47:24;2.92;;;1.35;;
71800;SDS011;59647;55.838;37.292;2023-05-07T05:49:53;2.92;;;1.40;;
71800;SDS011;59647;55.838;37.292;2023-05-07T05:52:19;2.90;;;1.10;;
71800;SDS011;59647;55.838;37.292;2023-05-07T05:54:45;10.70;;;2.72;;
71800;SDS011;59647;55.838;37.292;2023-05-07T05:57:12;3.38;;;1.65;;
71800;SDS011;59647;55.838;37.292;2023-05-07T05:59:38;1.70;;;1.00;;
71800;SDS011;59647;55.838;37.292;2023-05-07T06:02:04;4.82;;;1.60;;
71800;SDS011;59647;55.838;37.292;2023-05-07T06:04:30;2.42;;;1.00;;
71800;SDS011;59647;55.838;37.292;2023-05-07T06:06:57;4.38;;;1.60;;
71800;SDS011;59647;55.838;37.292;2023-05-07T06:09:24;10.68;;;1.40;;
71800;SDS011;59647;55.838;37.292;2023-05-07T06:11:51;12.65;;;1.65;;
71800;SDS011;59647;55.838;37.292;2023-05-07T06:14:17;7.43;;;1.63;;
71800;SDS011;59647;55.838;37.292;2023-05-07T06:16:43;4.07;;;1.90;;
71800;SDS011;59647;55.838;37.292;2023-05-07T06:19:10;2.88;;;1.00;;
71800;SDS011;59647;55.838;37.292;2023-05-07T06:21:37;2.88;;;1.40;;
71800;SDS011;59647;55.838;37.292;2023-05-07T06:24:04;6.03;;;1.52;;
71800;SDS011;59647;55.838;37.292;2023-05-07T06:26:30;4.97;;;1.60;;
71800;SDS011;59647;55.838;37.292;2023-05-07T06:28:56;2.88;;;1.30;;
71800;SDS011;59647;55.838;37.292;2023-05-07T06:31:23;3.60;;;1.35;;
71800;SDS011;59647;55.838;37.292;2023-05-07T06:34:01;2.83;;;1.10;;
71800;SDS011;59647;55.838;37.292;2023-05-07T06:36:33;4.75;;;1.58;;
71800;SDS011;59647;55.838;37.292;2023-05-07T06:39:05;3.22;;;1.40;;
71800;SDS011;59647;55.838;37.292;2023-05-07T06:41:31;3.10;;;1.17;;
71800;SDS011;59647;55.838;37.292;2023-05-07T06:44:04;4.32;;;2.00;;
71800;SDS011;59647;55.838;37.292;2023-05-07T06:46:36;3.25;;;2.25;;
71800;SDS011;59647;55.838;37.292;2023-05-07T06:49:03;3.03;;;1.65;;
71800;SDS011;59647;55.838;37.292;2023-05-07T06:51:30;2.90;;;1.52;;
71800;SDS011;59647;55.838;37.292;2023-05-07T06:54:00;4.05;;;1.45;;
71800;SDS011;59647;55.838;37.292;2023-05-07T06:56:27;2.65;;;1.20;;
71800;SDS011;59647;55.838;37.292;2023-05-07T06:58:53;8.65;;;1.65;;
71800;SDS011;59647;55.838;37.292;2023-05-07T07:01:20;5.18;;;1.40;;
71800;SDS011;59647;55.838;37.292;2023-05-07T07:03:46;4.40;;;1.10;;
71800;SDS011;59647;55.838;37.292;2023-05-07T07:06:15;2.40;;;1.48;;
71800;SDS011;59647;55.838;37.292;2023-05-07T07:08:42;4.88;;;0.95;;
71800;SDS011;59647;55.838;37.292;2023-05-07T07:11:10;2.95;;;1.15;;
71800;SDS011;59647;55.838;37.292;2023-05-07T07:13:36;3.30;;;1.08;;
71800;SDS011;59647;55.838;37.292;2023-05-07T07:16:02;23.75;;;2.28;;
71800;SDS011;59647;55.838;37.292;2023-05-07T07:18:28;9.77;;;1.65;;
71800;SDS011;59647;55.838;37.292;2023-05-07T07:20:56;4.53;;;0.95;;
71800;SDS011;59647;55.838;37.292;2023-05-07T07:23:23;9.05;;;1.17;;
71800;SDS011;59647;55.838;37.292;2023-05-07T07:25:49;6.90;;;0.90;;
71800;SDS011;59647;55.838;37.292;2023-05-07T07:28:15;8.27;;;1.20;;
71800;SDS011;59647;55.838;37.292;2023-05-07T07:30:42;15.90;;;1.55;;
71800;SDS011;59647;55.838;37.292;2023-05-07T07:33:09;1.95;;;0.73;;
71800;SDS011;59647;55.838;37.292;2023-05-07T07:35:37;5.10;;;1.55;;
71800;SDS011;59647;55.838;37.292;2023-05-07T07:38:04;8.07;;;1.20;;
71800;SDS011;59647;55.838;37.292;2023-05-07T07:40:30;1.30;;;0.80;;
71800;SDS011;59647;55.838;37.292;2023-05-07T07:42:57;6.18;;;1.30;;
71800;SDS011;59647;55.838;37.292;2023-05-07T07:45:23;5.22;;;1.35;;
71800;SDS011;59647;55.838;37.292;2023-05-07T07:47:51;19.85;;;1.80;;
71800;SDS011;59647;55.838;37.292;2023-05-07T07:50:17;27.55;;;2.25;;
71800;SDS011;59647;55.838;37.292;2023-05-07T07:52:44;5.72;;;1.25;;
71800;SDS011;59647;55.838;37.292;2023-05-07T07:55:13;2.88;;;1.77;;
71800;SDS011;59647;55.838;37.292;2023-05-07T07:57:43;1.05;;;0.63;;
71800;SDS011;59647;55.838;37.292;2023-05-07T08:00:10;5.60;;;0.88;;
71800;SDS011;59647;55.838;37.292;2023-05-07T08:02:42;1.17;;;0.70;;
71800;SDS011;59647;55.838;37.292;2023-05-07T08:05:10;2.28;;;0.95;;
71800;SDS011;59647;55.838;37.292;2023-05-07T08:07:36;3.80;;;1.05;;
71800;SDS011;59647;55.838;37.292;2023-05-07T08:10:02;4.25;;;0.90;;
71800;SDS011;59647;55.838;37.292;2023-05-07T08:12:29;3.38;;;0.85;;
71800;SDS011;59647;55.838;37.292;2023-05-07T08:14:55;19.77;;;1.58;;
71800;SDS011;59647;55.838;37.292;2023-05-07T08:17:21;8.27;;;1.25;;
71800;SDS011;59647;55.838;37.292;2023-05-07T08:19:49;2.15;;;0.60;;
71800;SDS011;59647;55.838;37.292;2023-05-07T08:22:15;1.30;;;0.80;;
71800;SDS011;59647;55.838;37.292;2023-05-07T08:24:43;2.42;;;1.27;;
71800;SDS011;59647;55.838;37.292;2023-05-07T08:27:10;3.63;;;1.00;;
71800;SDS011;59647;55.838;37.292;2023-05-07T08:29:37;3.33;;;0.77;;
71800;SDS011;59647;55.838;37.292;2023-05-07T08:32:02;7.50;;;1.15;;
71800;SDS011;59647;55.838;37.292;2023-05-07T08:34:29;2.20;;;1.05;;
71800;SDS011;59647;55.838;37.292;2023-05-07T08:36:56;5.78;;;1.58;;
71800;SDS011;59647;55.838;37.292;2023-05-07T08:39:23;5.10;;;1.45;;
71800;SDS011;59647;55.838;37.292;2023-05-07T08:41:52;5.95;;;1.20;;
71800;SDS011;59647;55.838;37.292;2023-05-07T08:44:22;3.22;;;1.20;;
71800;SDS011;59647;55.838;37.292;2023-05-07T08:46:54;3.70;;;1.30;;
71800;SDS011;59647;55.838;37.292;2023-05-07T08:49:23;2.45;;;0.70;;
71800;SDS011;59647;55.838;37.292;2023-05-07T08:51:50;1.77;;;0.90;;
71800;SDS011;59647;55.838;37.292;2023-05-07T08:54:18;1.17;;;0.80;;
71800;SDS011;59647;55.838;37.292;2023-05-07T08:56:45;1.35;;;0.73;;
71800;SDS011;59647;55.838;37.292;2023-05-07T08:59:11;3.42;;;1.02;;
71800;SDS011;59647;55.838;37.292;2023-05-07T09:01:38;8.32;;;1.10;;
71800;SDS011;59647;55.838;37.292;2023-05-07T09:04:05;1.55;;;0.90;;
71800;SDS011;59647;55.838;37.292;2023-05-07T09:06:33;5.68;;;1.35;;
71800;SDS011;59647;55.838;37.292;2023-05-07T09:09:00;31.05;;;3.60;;
71800;SDS011;59647;55.838;37.292;2023-05-07T09:11:29;6.13;;;1.40;;
71800;SDS011;59647;55.838;37.292;2023-05-07T09:13:58;7.15;;;2.28;;
71800;SDS011;59647;55.838;37.292;2023-05-07T09:16:32;4.88;;;1.15;;
71800;SDS011;59647;55.838;37.292;2023-05-07T09:18:59;2.53;;;1.20;;
71800;SDS011;59647;55.838;37.292;2023-05-07T09:21:26;1.10;;;0.60;;
71800;SDS011;59647;55.838;37.292;2023-05-07T09:23:55;1.25;;;0.80;;
71800;SDS011;59647;55.838;37.292;2023-05-07T09:26:27;7.78;;;1.65;;
71800;SDS011;59647;55.838;37.292;2023-05-07T09:28:54;7.25;;;1.25;;
71800;SDS011;59647;55.838;37.292;2023-05-07T09:31:21;3.72;;;0.80;;
71800;SDS011;59647;55.838;37.292;2023-05-07T09:33:54;3.00;;;1.60;;
71800;SDS011;59647;55.838;37.292;2023-05-07T09:36:22;2.40;;;1.10;;
71800;SDS011;59647;55.838;37.292;2023-05-07T09:38:49;1.48;;;0.75;;
71800;SDS011;59647;55.838;37.292;2023-05-07T09:41:16;5.03;;;1.92;;
71800;SDS011;59647;55.838;37.292;2023-05-07T09:43:54;4.10;;;1.20;;
71800;SDS011;59647;55.838;37.292;2023-05-07T09:46:25;2.13;;;0.70;;
71800;SDS011;59647;55.838;37.292;2023-05-07T09:48:59;1.45;;;1.00;;
71800;SDS011;59647;55.838;37.292;2023-05-07T09:51:34;5.50;;;1.02;;
71800;SDS011;59647;55.838;37.292;2023-05-07T09:54:11;5.50;;;1.30;;
71800;SDS011;59647;55.838;37.292;2023-05-07T09:56:40;9.23;;;1.40;;
71800;SDS011;59647;55.838;37.292;2023-05-07T09:59:08;1.38;;;0.80;;
71800;SDS011;59647;55.838;37.292;2023-05-07T10:01:38;1.70;;;1.00;;
71800;SDS011;59647;55.838;37.292;2023-05-07T10:04:06;2.28;;;1.00;;
71800;SDS011;59647;55.838;37.292;2023-05-07T10:06:34;2.85;;;1.10;;
71800;SDS011;59647;55.838;37.292;2023-05-07T10:09:01;1.83;;;0.80;;
71800;SDS011;59647;55.838;37.292;2023-05-07T10:11:28;3.25;;;1.02;;
71800;SDS011;59647;55.838;37.292;2023-05-07T10:13:54;2.05;;;1.02;;
71800;SDS011;59647;55.838;37.292;2023-05-07T10:16:21;2.67;;;1.10;;
71800;SDS011;59647;55.838;37.292;2023-05-07T10:18:48;4.18;;;1.23;;
71800;SDS011;59647;55.838;37.292;2023-05-07T10:21:20;3.17;;;1.10;;
71800;SDS011;59647;55.838;37.292;2023-05-07T10:23:51;1.70;;;0.95;;
71800;SDS011;59647;55.838;37.292;2023-05-07T10:26:24;6.22;;;0.90;;
71800;SDS011;59647;55.838;37.292;2023-05-07T10:28:54;1.80;;;1.10;;
71800;SDS011;59647;55.838;37.292;2023-05-07T10:34:07;3.38;;;1.30;;
71800;SDS011;59647;55.838;37.292;2023-05-07T10:36:36;1.75;;;0.95;;
71800;SDS011;59647;55.838;37.292;2023-05-07T10:39:03;6.38;;;1.20;;
71800;SDS011;59647;55.838;37.292;2023-05-07T10:41:30;2.70;;;1.20;;
71800;SDS011;59647;55.838;37.292;2023-05-07T10:43:56;2.88;;;1.00;;
71800;SDS011;59647;55.838;37.292;2023-05-07T10:46:29;4.88;;;1.27;;
71800;SDS011;59647;55.838;37.292;2023-05-07T10:49:08;4.85;;;1.05;;
71800;SDS011;59647;55.838;37.292;2023-05-07T10:55:23;4.70;;;1.10;;
71800;SDS011;59647;55.838;37.292;2023-05-07T11:00:48;2.72;;;1.20;;
71800;SDS011;59647;55.838;37.292;2023-05-07T11:03:26;5.03;;;1.27;;
71800;SDS011;59647;55.838;37.292;2023-05-07T11:06:16;2.45;;;1.00;;
71800;SDS011;59647;55.838;37.292;2023-05-07T11:08:56;2.20;;;1.20;;
71800;SDS011;59647;55.838;37.292;2023-05-07T11:11:54;2.65;;;1.00;;
71800;SDS011;59647;55.838;37.292;2023-05-07T11:14:42;1.63;;;1.00;;
71800;SDS011;59647;55.838;37.292;2023-05-07T11:17:17;2.88;;;1.08;;
71800;SDS011;59647;55.838;37.292;2023-05-07T11:19:50;4.60;;;1.38;;
71800;SDS011;59647;55.838;37.292;2023-05-07T11:22:44;2.28;;;0.98;;
71800;SDS011;59647;55.838;37.292;2023-05-07T11:25:45;1.88;;;0.95;;
71800;SDS011;59647;55.838;37.292;2023-05-07T11:28:17;2.83;;;1.00;;
71800;SDS011;59647;55.838;37.292;2023-05-07T11:30:50;3.65;;;0.93;;
71800;SDS011;59647;55.838;37.292;2023-05-07T11:33:19;3.50;;;1.35;;
71800;SDS011;59647;55.838;37.292;2023-05-07T11:35:47;2.55;;;1.10;;
71800;SDS011;59647;55.838;37.292;2023-05-07T11:38:15;9.68;;;1.20;;
71800;SDS011;59647;55.838;37.292;2023-05-07T11:40:49;1.70;;;1.00;;
71800;SDS011;59647;55.838;37.292;2023-05-07T11:43:16;3.55;;;1.02;;
71800;SDS011;59647;55.838;37.292;2023-05-07T11:45:42;2.58;;;1.20;;
71800;SDS011;59647;55.838;37.292;2023-05-07T11:48:08;5.10;;;1.30;;
71800;SDS011;59647;55.838;37.292;2023-05-07T11:50:34;6.95;;;1.20;;
71800;SDS011;59647;55.838;37.292;2023-05-07T11:53:00;7.25;;;1.42;;
71800;SDS011;59647;55.838;37.292;2023-05-07T11:55:26;4.90;;;1.33;;
71800;SDS011;59647;55.838;37.292;2023-05-07T11:57:51;4.45;;;1.50;;
71800;SDS011;59647;55.838;37.292;2023-05-07T12:00:17;3.40;;;1.00;;
71800;SDS011;59647;55.838;37.292;2023-05-07T12:02:44;2.47;;;1.73;;
71800;SDS011;59647;55.838;37.292;2023-05-07T12:05:11;2.72;;;1.05;;
71800;SDS011;59647;55.838;37.292;2023-05-07T12:07:37;5.70;;;1.55;;
71800;SDS011;59647;55.838;37.292;2023-05-07T12:10:06;23.20;;;2.05;;
71800;SDS011;59647;55.838;37.292;2023-05-07T12:12:39;8.07;;;1.52;;
71800;SDS011;59647;55.838;37.292;2023-05-07T12:15:07;3.78;;;1.02;;
71800;SDS011;59647;55.838;37.292;2023-05-07T12:17:34;2.55;;;0.98;;
71800;SDS011;59647;55.838;37.292;2023-05-07T12:20:00;1.80;;;0.95;;
71800;SDS011;59647;55.838;37.292;2023-05-07T12:22:31;7.63;;;2.08;;
71800;SDS011;59647;55.838;37.292;2023-05-07T12:24:57;7.75;;;1.58;;
71800;SDS011;59647;55.838;37.292;2023-05-07T12:27:25;13.98;;;1.73;;
71800;SDS011;59647;55.838;37.292;2023-05-07T12:29:51;9.45;;;1.83;;
71800;SDS011;59647;55.838;37.292;2023-05-07T12:32:18;10.93;;;1.50;;
71800;SDS011;59647;55.838;37.292;2023-05-07T12:34:46;16.98;;;1.90;;
71800;SDS011;59647;55.838;37.292;2023-05-07T12:37:15;7.75;;;2.33;;
71800;SDS011;59647;55.838;37.292;2023-05-07T12:39:48;8.25;;;1.80;;
71800;SDS011;59647;55.838;37.292;2023-05-07T12:42:15;5.28;;;1.25;;
71800;SDS011;59647;55.838;37.292;2023-05-07T12:44:43;5.25;;;1.25;;
71800;SDS011;59647;55.838;37.292;2023-05-07T12:47:11;6.72;;;1.65;;
71800;SDS011;59647;55.838;37.292;2023-05-07T12:49:38;3.05;;;0.75;;
71800;SDS011;59647;55.838;37.292;2023-05-07T12:52:05;9.23;;;2.15;;
71800;SDS011;59647;55.838;37.292;2023-05-07T12:54:32;10.32;;;1.70;;
71800;SDS011;59647;55.838;37.292;2023-05-07T12:57:04;8.07;;;1.30;;
71800;SDS011;59647;55.838;37.292;2023-05-07T12:59:32;10.68;;;1.65;;
71800;SDS011;59647;55.838;37.292;2023-05-07T13:02:02;1.95;;;0.90;;
71800;SDS011;59647;55.838;37.292;2023-05-07T13:04:28;9.82;;;2.17;;
71800;SDS011;59647;55.838;37.292;2023-05-07T13:06:54;3.25;;;0.95;;
71800;SDS011;59647;55.838;37.292;2023-05-07T13:09:20;6.43;;;1.25;;
71800;SDS011;59647;55.838;37.292;2023-05-07T13:11:46;19.38;;;1.70;;
71800;SDS011;59647;55.838;37.292;2023-05-07T13:14:12;2.53;;;1.00;;
71800;SDS011;59647;55.838;37.292;2023-05-07T13:16:37;4.50;;;1.05;;
71800;SDS011;59647;55.838;37.292;2023-05-07T13:19:03;4.80;;;1.20;;
71800;SDS011;59647;55.838;37.292;2023-05-07T13:21:30;5.45;;;1.33;;
71800;SDS011;59647;55.838;37.292;2023-05-07T13:23:58;3.38;;;1.20;;
71800;SDS011;59647;55.838;37.292;2023-05-07T13:26:24;2.63;;;0.90;;
71800;SDS011;59647;55.838;37.292;2023-05-07T13:28:51;6.95;;;1.25;;
71800;SDS011;59647;55.838;37.292;2023-05-07T13:31:18;3.80;;;1.35;;
71800;SDS011;59647;55.838;37.292;2023-05-07T13:33:46;3.45;;;1.40;;
71800;SDS011;59647;55.838;37.292;2023-05-07T13:36:13;3.25;;;1.00;;
71800;SDS011;59647;55.838;37.292;2023-05-07T13:38:39;11.93;;;1.30;;
71800;SDS011;59647;55.838;37.292;2023-05-07T13:41:05;10.18;;;1.67;;
71800;SDS011;59647;55.838;37.292;2023-05-07T13:43:38;2.38;;;1.27;;
71800;SDS011;59647;55.838;37.292;2023-05-07T13:46:31;2.50;;;1.30;;
71800;SDS011;59647;55.838;37.292;2023-05-07T13:48:57;11.38;;;1.92;;
71800;SDS011;59647;55.838;37.292;2023-05-07T13:51:23;4.43;;;1.63;;
71800;SDS011;59647;55.838;37.292;2023-05-07T13:53:49;5.53;;;1.58;;
71800;SDS011;59647;55.838;37.292;2023-05-07T13:56:15;3.88;;;1.23;;
71800;SDS011;59647;55.838;37.292;2023-05-07T13:58:41;4.05;;;1.20;;
71800;SDS011;59647;55.838;37.292;2023-05-07T14:01:07;4.50;;;1.30;;
71800;SDS011;59647;55.838;37.292;2023-05-07T14:03:33;5.03;;;1.20;;
71800;SDS011;59647;55.838;37.292;2023-05-07T14:05:59;7.55;;;1.77;;
71800;SDS011;59647;55.838;37.292;2023-05-07T14:08:27;2.42;;;1.20;;
71800;SDS011;59647;55.838;37.292;2023-05-07T14:10:53;4.57;;;1.10;;
71800;SDS011;59647;55.838;37.292;2023-05-07T14:13:19;15.02;;;2.42;;
71800;SDS011;59647;55.838;37.292;2023-05-07T14:15:45;9.07;;;1.50;;
71800;SDS011;59647;55.838;37.292;2023-05-07T14:18:12;2.83;;;1.20;;
71800;SDS011;59647;55.838;37.292;2023-05-07T14:20:38;3.05;;;1.38;;
71800;SDS011;59647;55.838;37.292;2023-05-07T14:23:04;7.15;;;1.40;;
71800;SDS011;59647;55.838;37.292;2023-05-07T14:25:30;4.15;;;1.30;;
71800;SDS011;59647;55.838;37.292;2023-05-07T14:27:56;4.78;;;1.20;;
71800;SDS011;59647;55.838;37.292;2023-05-07T14:30:22;3.28;;;1.33;;
71800;SDS011;59647;55.838;37.292;2023-05-07T14:32:49;4.85;;;1.67;;
71800;SDS011;59647;55.838;37.292;2023-05-07T14:35:16;2.00;;;1.00;;
71800;SDS011;59647;55.838;37.292;2023-05-07T14:37:42;9.82;;;1.63;;
71800;SDS011;59647;55.838;37.292;2023-05-07T14:40:09;3.70;;;1.50;;
71800;SDS011;59647;55.838;37.292;2023-05-07T14:42:35;5.05;;;2.38;;
71800;SDS011;59647;55.838;37.292;2023-05-07T14:45:01;2.20;;;1.23;;
71800;SDS011;59647;55.838;37.292;2023-05-07T14:47:31;2.40;;;1.23;;